Suitland, Maryland
Current Conditions -  °F | °C
As of 10:58 AM on Thursday 27 Nov 2014 (Local Time) from KADW Reporting Station
Broken Clouds Broken Clouds  
Wind Chill: 39°   Ceiling: 18000
Heat Index: 39°   Visibility: 10mi
Dew Point: 33°   Wind: 2mph
Humidity: 77%   Direction: NA
Pressure: 30.05"   Gusts: NA
Location:  38.85°N, 76.92°W
Report Text: KADW 271558Z AUTO VRB02KT 10SM FEW033 SCT065 BKN180 04/00 A3005 RMK AO2 SLP185 T00400003 $
Loading
Personal Weather Stations






























Interactive Weather Map New forecast layout! Learn more

10-Day Weather Forecast

Advertisements
Track Severe Weather on mobile